»·PEaware :: N518SC KNGP-KSAT

N518SC :: KNGP-KSAT

FLIGHT INFORMATION

Flight Status: Arrived
Operator: Privately registered:
United States
More flights under this callsign
Pilot: Mike E. (18363)
Aircraft: Unknown
(P28U)
More flights by this aircraft type
Origin: KNGP Corpus Christi NAS/Truax
United States
Destination: KSAT San Antonio Intl
United States
More flights between these airports :: More routes between these airports
Route: CRP THX LEMIG
File this flight plan on PilotEdge
Remarks:
Altitude:
(Current/Filed)
0ft
Speed:
(Current/Filed)
100kts
Departed: 19-Jul-18 08:08 PM
Arrived: 19-Jul-18 09:17 PM
Distance/Time
Traveled:
127nm/1:08
Distance/Time
To Go:
Arrived

Flight Plot

Page will automatically refresh every two minutes.

Flight plan parsing failed; only flown route is shown


Map Options




Map Legend


Flown Route
Filed Route
Departure Airport
Arrival Airport
Navaid (VOR, NDB)
Fix

Horizontal Profiles

Position Reports

Time Latitude Longitude Heading Altitude Ground
Speed
19-Jul-18 20:06 27.700591 -97.301426 135 4ft 0kts
19-Jul-18 20:07 27.700591 -97.301426 135 4ft 0kts
19-Jul-18 20:08 27.700591 -97.301426 135 4ft 0kts
19-Jul-18 20:09 27.695627 -97.295772 154 172ft 66kts
19-Jul-18 20:22 27.699012 -97.288469 179 10ft 0kts
19-Jul-18 20:23 27.698071 -97.288451 175 10ft 41kts
19-Jul-18 20:24 27.693840 -97.302108 306 767ft 96kts
19-Jul-18 20:25 27.697871 -97.331190 335 998ft 126kts
19-Jul-18 20:26 27.737004 -97.334922 359 1001ft 152kts
19-Jul-18 20:27 27.776541 -97.351971 328 999ft 155kts
19-Jul-18 20:28 27.812946 -97.378284 326 991ft 155kts
19-Jul-18 20:29 27.849036 -97.404755 326 991ft 155kts
19-Jul-18 20:30 27.885056 -97.431202 326 991ft 155kts
19-Jul-18 20:31 27.918216 -97.461715 312 991ft 154kts
19-Jul-18 20:32 27.947882 -97.496420 312 1255ft 147kts
19-Jul-18 20:33 27.975422 -97.528606 312 2088ft 138kts
19-Jul-18 20:34 28.002234 -97.559953 313 2913ft 138kts
19-Jul-18 20:35 28.029157 -97.591415 313 3702ft 137kts
19-Jul-18 20:36 28.056075 -97.622926 314 4502ft 135kts
19-Jul-18 20:37 28.081823 -97.653319 314 5399ft 134kts
19-Jul-18 20:38 28.107728 -97.683688 316 6309ft 135kts
19-Jul-18 20:39 28.136875 -97.717173 315 6520ft 161kts
19-Jul-18 20:40 28.168638 -97.754320 315 6518ft 165kts
19-Jul-18 20:41 28.200788 -97.791882 314 6504ft 167kts
19-Jul-18 20:42 28.232832 -97.829817 315 6522ft 166kts
19-Jul-18 20:43 28.264795 -97.867470 315 6528ft 166kts
19-Jul-18 20:44 28.296855 -97.905257 315 6528ft 166kts
19-Jul-18 20:45 28.328974 -97.943160 315 6528ft 166kts
19-Jul-18 20:46 28.360923 -97.980901 315 6528ft 166kts
19-Jul-18 20:47 28.392970 -98.018793 315 6528ft 166kts
19-Jul-18 20:48 28.424949 -98.056640 315 6528ft 166kts
19-Jul-18 20:49 28.456988 -98.094593 315 6528ft 166kts
19-Jul-18 20:50 28.489033 -98.132589 315 6528ft 166kts
19-Jul-18 20:51 28.524268 -98.165630 329 6528ft 164kts
19-Jul-18 20:52 28.562733 -98.194089 329 6529ft 164kts
19-Jul-18 20:53 28.601049 -98.222495 329 6529ft 164kts
19-Jul-18 20:54 28.639440 -98.250992 330 6529ft 165kts
19-Jul-18 20:55 28.678165 -98.279750 329 6520ft 167kts
19-Jul-18 20:56 28.717271 -98.308842 329 6520ft 168kts
19-Jul-18 20:57 28.756448 -98.337998 329 6520ft 168kts
19-Jul-18 20:58 28.795505 -98.367095 329 6520ft 168kts
19-Jul-18 20:59 28.834674 -98.396302 329 6521ft 168kts
19-Jul-18 21:00 28.873957 -98.425619 329 6521ft 168kts
19-Jul-18 21:01 28.913090 -98.454850 329 6521ft 168kts
19-Jul-18 21:02 28.952230 -98.484102 329 6522ft 168kts
19-Jul-18 21:03 28.993868 -98.501028 5 6529ft 160kts
19-Jul-18 21:04 29.038252 -98.498953 6 6530ft 160kts
19-Jul-18 21:05 29.082617 -98.495844 6 6530ft 160kts
19-Jul-18 21:06 29.126839 -98.493275 6 6500ft 155kts
19-Jul-18 21:07 29.169251 -98.490880 6 6005ft 158kts
19-Jul-18 21:08 29.205811 -98.488812 6 5596ft 157kts
19-Jul-18 21:09 29.256673 -98.485928 6 5036ft 156kts
19-Jul-18 21:10 29.298901 -98.483547 6 4579ft 156kts
19-Jul-18 21:11 29.342186 -98.481097 6 4123ft 155kts
19-Jul-18 21:12 29.378179 -98.479078 7 3752ft 155kts
19-Jul-18 21:13 29.421452 -98.476604 7 3299ft 155kts
19-Jul-18 21:14 29.471464 -98.473871 2 2795ft 156kts
19-Jul-18 21:15 29.502720 -98.485084 18 1976ft 115kts
19-Jul-18 21:16 29.525903 -98.484258 332 1129ft 90kts
19-Jul-18 21:17 29.537203 -98.473746 130 786ft 52kts
19-Jul-18 21:18 29.536205 -98.472477 128 783ft 0kts

Navigation Log

Ident Type
Flight plan parsing failed, navigation log unavailable